ホバート の空港の天気 - METARとTAF

ホバート国際空港 ( YMHB / HBA ) - オーストラリア タスマニア州、Cambridge
飛行場実況気象(Metar)
観測時間10/20 15:00 AEDT (10/20 04:00 UTC)
風向・風速西 8m/s
視程10km以上
天気現象
全天の4割程度の雲 雲底高度 1370m
全天の4割程度の雲 雲底高度 1710m
気温19℃
湿度40%
気圧1013hPa
METARYMHB 200400Z 26015KT 9999 SCT045 SCT056 19/05 Q1013 RF00.0/000.0
過去の天気等 Google飛行場航空写真 Wunderground天気予報

過去48時間のMETAR

飛行場予報(TAF)
発表時間: 10/20 10:26 AEDT (10/19 23:26 UTC)
予報対象時間: 20日11時 AEDT ~ 21日11時 AEDT
風向・風速西 9m/s 瞬間風速 15m/s
視程10km以上
少しの雲 雲底高度 760m
全天の8割程度の雲 雲底高度 1220m
20日20時 AEDT から
風向・風速西 5m/s
視程10km以上
全天の4割程度の雲 雲底高度 1220m
20日23時 AEDT から
風向・風速西北西 5m/s
視程10km以上
全天の4割程度の雲 雲底高度 760m
21日10時 AEDT から
風向・風速西 5m/s
視程10km以上
なし
TAF YMHB 192326Z 2000/2024 27018G30KT 9999 FEW025 BKN040
FM200900 27010KT 9999 SCT040
FM201200 30010KT 9999 SCT025
FM202300 27010KT CAVOK